Time;durP1;ratioP1;P1;durP2;ratioP2;P2;SDS_P1;SDS_P2;PMS_P1;PMS_P2;Temp;Humidity;BMP_temperature;BMP_pressure;BME280_temperature;BME280_humidity;BME280_pressure;Samples;Min_cycle;Max_cycle;Signal;HPM_P1;HPM_P2
2022/09/27 00:00:30;;;;;;;;;;;;;;;;;;4995601;28;19925;-75
2022/09/27 00:02:55;;;;;;;;;;;;;;;;;;4989132;28;19938;-75
2022/09/27 00:05:21;;;;;;;;;;;;;;;;;;4988150;28;20197;-76
2022/09/27 00:07:46;;;;;;;;;;;;;;;;;;4978328;28;19914;-76
2022/09/27 00:10:11;;;;;;;;;;;;;;;;;;4980322;28;19921;-76
2022/09/27 00:12:37;;;;;;;;;;;;;;;;;;4976397;28;19968;-74
2022/09/27 00:15:02;;;;;;;;;;;;;;;;;;4988613;28;19914;-77
2022/09/27 00:17:28;;;;;;;;;;;;;;;;;;4976841;28;20416;-74
2022/09/27 00:19:56;;;;;;;;;;;;;;;;;;4974722;28;19914;-75
2022/09/27 00:22:22;;;;;;;;;;;;;;;;;;4975658;28;20411;-74
2022/09/27 00:24:48;;;;;;;;;;;;;;;;;;4974717;28;19926;-77
2022/09/27 00:27:13;;;;;;;;;;;;;;;;;;4975747;28;19919;-75
2022/09/27 00:29:38;;;;;;;;;;;;;;;;;;4958839;28;19914;-75
2022/09/27 00:32:04;;;;;;;;;;;;;;;;;;4975600;28;20314;-77
2022/09/27 00:34:29;;;;;;;;;;;;;;;;;;4975602;28;19920;-75
2022/09/27 00:36:55;;;;;;;;;;;;;;;;;;4974047;28;19946;-76
2022/09/27 00:39:20;;;;;;;;;;;;;;;;;;4975747;28;20138;-76
2022/09/27 00:41:45;;;;;;;;;;;;;;;;;;4975296;28;20001;-77
2022/09/27 00:44:11;;;;;;;;;;;;;;;;;;4975201;28;20369;-75
2022/09/27 00:46:36;;;;;;;;;;;;;;;;;;4973767;28;19918;-76
2022/09/27 00:49:02;;;;;;;;;;;;;;;;;;4989316;28;19922;-77
2022/09/27 00:51:27;;;;;;;;;;;;;;;;;;4975225;28;20013;-76
2022/09/27 00:53:52;;;;;;;;;;;;;;;;;;4975128;28;20369;-76
2022/09/27 00:56:18;;;;;;;;;;;;;;;;;;4973878;28;20057;-76
2022/09/27 00:58:43;;;;;;;;;;;;;;;;;;4973981;28;19914;-76
2022/09/27 01:01:15;;;;;;;;;;;;;;;;;;4975542;28;20014;-76
2022/09/27 01:03:40;;;;;;;;;;;;;;;;;;4972007;28;19922;-76
2022/09/27 01:06:06;;;;;;;;;;;;;;;;;;4981697;28;19914;-76
2022/09/27 01:08:31;;;;;;;;;;;;;;;;;;4975349;28;20385;-76
2022/09/27 01:10:57;;;;;;;;;;;;;;;;;;4989790;28;19961;-76
2022/09/27 01:13:25;;;;;;;;;;;;;;;;;;4974719;28;19918;-76
2022/09/27 01:15:50;;;;;;;;;;;;;;;;;;4958173;28;19926;-77
2022/09/27 01:18:15;;;;;;;;;;;;;;;;;;4974787;28;19968;-77
2022/09/27 01:20:41;;;;;;;;;;;;;;;;;;4957452;28;19918;-75
2022/09/27 01:23:06;;;;;;;;;;;;;;;;;;4956349;28;19996;-77
2022/09/27 01:25:32;;;;;;;;;;;;;;;;;;4974520;28;19968;-76
2022/09/27 01:27:57;;;;;;;;;;;;;;;;;;4957573;28;19915;-76
2022/09/27 01:30:22;;;;;;;;;;;;;;;;;;4973413;28;20329;-77
2022/09/27 01:32:50;;;;;;;;;;;;;;;;;;4957261;28;20424;-77
2022/09/27 01:35:16;;;;;;;;;;;;;;;;;;4973210;28;19914;-77
2022/09/27 01:37:42;;;;;;;;;;;;;;;;;;4973001;28;19921;-75
2022/09/27 01:40:08;;;;;;;;;;;;;;;;;;4973806;28;19915;-75
2022/09/27 01:42:54;;;;;;;;;;;;;;;;;;4974032;28;19914;-75
2022/09/27 01:45:20;;;;;;;;;;;;;;;;;;4974680;28;19918;-76
2022/09/27 01:47:55;;;;;;;;;;;;;;;;;;5007789;22;19926;-76
2022/09/27 01:50:39;;;;;;;;;;;;;;;;;;4992255;28;20434;-75
2022/09/27 01:53:04;;;;;;;;;;;;;;;;;;4992145;28;20012;-76
2022/09/27 01:55:38;;;;;;;;;;;;;;;;;;4989295;28;20481;-75
2022/09/27 01:58:26;;;;;;;;;;;;;;;;;;4991176;28;20101;-74
2022/09/27 02:00:52;;;;;;;;;;;;;;;;;;4956981;28;20377;-76
2022/09/27 02:03:18;;;;;;;;;;;;;;;;;;4940989;28;19917;-76
2022/09/27 02:06:09;;;;;;;;;;;;;;;;;;4988674;28;20289;-76
2022/09/27 02:08:50;;;;;;;;;;;;;;;;;;4973095;28;20001;-76
2022/09/27 02:11:30;;;;;;;;;;;;;;;;;;4973000;28;19941;-76
2022/09/27 02:14:08;;;;;;;;;;;;;;;;;;4969512;28;19915;-76
2022/09/27 02:16:38;;;;;;;;;;;;;;;;;;4951999;28;19937;-76
2022/09/27 02:19:04;;;;;;;;;;;;;;;;;;4974793;28;20381;-75
2022/09/27 02:21:30;;;;;;;;;;;;;;;;;;4972871;28;20443;-75
2022/09/27 02:23:57;;;;;;;;;;;;;;;;;;4972619;28;19922;-75
2022/09/27 02:26:22;;;;;;;;;;;;;;;;;;4963700;28;20271;-77
2022/09/27 02:28:48;;;;;;;;;;;;;;;;;;4987797;28;19920;-76
2022/09/27 02:31:22;;;;;;;;;;;;;;;;;;4973461;28;19914;-77
2022/09/27 02:33:47;;;;;;;;;;;;;;;;;;4972758;28;19914;-76
2022/09/27 02:36:14;;;;;;;;;;;;;;;;;;4972487;28;19921;-77
2022/09/27 02:38:39;;;;;;;;;;;;;;;;;;4972735;28;19960;-77
2022/09/27 02:41:05;;;;;;;;;;;;;;;;;;4972530;28;20401;-76
2022/09/27 02:43:31;;;;;;;;;;;;;;;;;;4956829;28;19915;-76
2022/09/27 02:45:58;;;;;;;;;;;;;;;;;;4979380;28;19918;-76
2022/09/27 02:48:24;;;;;;;;;;;;;;;;;;4969031;28;19937;-76
2022/09/27 02:50:49;;;;;;;;;;;;;;;;;;4973627;28;19914;-77
2022/09/27 02:53:23;;;;;;;;;;;;;;;;;;4955850;28;20407;-76
2022/09/27 02:55:57;;;;;;;;;;;;;;;;;;4979286;28;19918;-75
2022/09/27 02:58:57;;;;;;;;;;;;;;;;;;4989327;28;19918;-76
2022/09/27 03:01:35;;;;;;;;;;;;;;;;;;4973068;28;20016;-76
2022/09/27 03:04:04;;;;;;;;;;;;;;;;;;4971838;28;20001;-76
2022/09/27 03:06:29;;;;;;;;;;;;;;;;;;4984436;28;20037;-76
2022/09/27 03:08:55;;;;;;;;;;;;;;;;;;4956387;28;19914;-76
2022/09/27 03:11:21;;;;;;;;;;;;;;;;;;4973348;28;19930;-76
2022/09/27 03:13:46;;;;;;;;;;;;;;;;;;4973961;28;19914;-76
2022/09/27 03:16:12;;;;;;;;;;;;;;;;;;4972837;28;20271;-76
2022/09/27 03:18:54;;;;;;;;;;;;;;;;;;4971974;28;20390;-76
2022/09/27 03:21:38;;;;;;;;;;;;;;;;;;4973250;28;19914;-76
2022/09/27 03:24:04;;;;;;;;;;;;;;;;;;4971315;28;19920;-75
2022/09/27 03:26:29;;;;;;;;;;;;;;;;;;4972325;28;19914;-76
2022/09/27 03:28:56;;;;;;;;;;;;;;;;;;4976187;28;20313;-75
2022/09/27 03:31:21;;;;;;;;;;;;;;;;;;4976009;28;19914;-76
2022/09/27 03:34:06;;;;;;;;;;;;;;;;;;4977261;28;19926;-76
2022/09/27 03:36:31;;;;;;;;;;;;;;;;;;4976414;28;20021;-76
2022/09/27 03:38:57;;;;;;;;;;;;;;;;;;4976456;28;19914;-75
2022/09/27 03:41:22;;;;;;;;;;;;;;;;;;4958039;28;19914;-77
2022/09/27 03:43:48;;;;;;;;;;;;;;;;;;4980908;28;19957;-76
2022/09/27 03:46:13;;;;;;;;;;;;;;;;;;4975278;28;19918;-76
2022/09/27 03:48:38;;;;;;;;;;;;;;;;;;4975255;28;19918;-75
2022/09/27 03:51:04;;;;;;;;;;;;;;;;;;4976362;28;19914;-77
2022/09/27 03:53:29;;;;;;;;;;;;;;;;;;4975003;28;20020;-76
2022/09/27 03:55:55;;;;;;;;;;;;;;;;;;4971882;28;19910;-77
2022/09/27 03:58:20;;;;;;;;;;;;;;;;;;4958891;28;19921;-76
2022/09/27 04:00:45;;;;;;;;;;;;;;;;;;4976163;28;20297;-77
2022/09/27 04:03:11;;;;;;;;;;;;;;;;;;4974820;28;19921;-77
2022/09/27 04:05:59;;;;;;;;;;;;;;;;;;4984095;28;19922;-77
2022/09/27 04:08:32;;;;;;;;;;;;;;;;;;4974760;28;19921;-77
2022/09/27 04:10:58;;;;;;;;;;;;;;;;;;4958761;28;19914;-76
2022/09/27 04:13:23;;;;;;;;;;;;;;;;;;4973951;28;19990;-76
2022/09/27 04:15:53;;;;;;;;;;;;;;;;;;4975176;28;19965;-77
2022/09/27 04:18:21;;;;;;;;;;;;;;;;;;4974447;28;19914;-77
2022/09/27 04:20:49;;;;;;;;;;;;;;;;;;4975670;28;19920;-76
2022/09/27 04:23:14;;;;;;;;;;;;;;;;;;4975614;28;20360;-76
2022/09/27 04:25:47;;;;;;;;;;;;;;;;;;4960708;28;19977;-76
2022/09/27 04:28:21;;;;;;;;;;;;;;;;;;4979850;28;19915;-77
2022/09/27 04:30:47;;;;;;;;;;;;;;;;;;4974198;28;19988;-76
2022/09/27 04:33:33;;;;;;;;;;;;;;;;;;4974291;28;19932;-76
2022/09/27 04:36:27;;;;;;;;;;;;;;;;;;4975042;28;19914;-74
2022/09/27 04:39:15;;;;;;;;;;;;;;;;;;4973937;28;19920;-76
2022/09/27 04:41:43;;;;;;;;;;;;;;;;;;4974310;28;19914;-76
2022/09/27 04:44:10;;;;;;;;;;;;;;;;;;4961880;28;19922;-77
2022/09/27 04:46:35;;;;;;;;;;;;;;;;;;4973581;28;19918;-76
2022/09/27 04:49:01;;;;;;;;;;;;;;;;;;4957844;28;19925;-76
2022/09/27 04:51:28;;;;;;;;;;;;;;;;;;4973943;28;19914;-76
2022/09/27 04:53:53;;;;;;;;;;;;;;;;;;4973671;28;19970;-76
2022/09/27 04:56:19;;;;;;;;;;;;;;;;;;4973508;28;19915;-76
2022/09/27 04:58:45;;;;;;;;;;;;;;;;;;4973528;28;20008;-77
2022/09/27 05:01:11;;;;;;;;;;;;;;;;;;4972382;28;19914;-76
2022/09/27 05:03:56;;;;;;;;;;;;;;;;;;4974233;28;19953;-76
2022/09/27 05:06:22;;;;;;;;;;;;;;;;;;4972854;28;19918;-77
2022/09/27 05:08:47;;;;;;;;;;;;;;;;;;4972944;28;19914;-76
2022/09/27 05:11:13;;;;;;;;;;;;;;;;;;4974269;28;19922;-76
2022/09/27 05:13:39;;;;;;;;;;;;;;;;;;4973089;28;19914;-76
2022/09/27 05:16:05;;;;;;;;;;;;;;;;;;4974361;28;20338;-76
2022/09/27 05:18:59;;;;;;;;;;;;;;;;;;4976010;28;19926;-77
2022/09/27 05:22:00;;;;;;;;;;;;;;;;;;4980599;28;19921;-76
2022/09/27 05:24:26;;;;;;;;;;;;;;;;;;4984639;28;20100;-76
2022/09/27 05:26:52;;;;;;;;;;;;;;;;;;4972821;28;19916;-77
2022/09/27 05:29:18;;;;;;;;;;;;;;;;;;4972283;28;19935;-76
2022/09/27 05:31:51;;;;;;;;;;;;;;;;;;4968242;28;19914;-76
2022/09/27 05:34:19;;;;;;;;;;;;;;;;;;4972553;28;20005;-76
2022/09/27 05:36:55;;;;;;;;;;;;;;;;;;4973684;28;19968;-77
2022/09/27 05:39:21;;;;;;;;;;;;;;;;;;4972698;28;19914;-77
2022/09/27 05:41:49;;;;;;;;;;;;;;;;;;4956526;28;19977;-76
2022/09/27 05:44:14;;;;;;;;;;;;;;;;;;4962419;28;19949;-77
2022/09/27 05:46:47;;;;;;;;;;;;;;;;;;4985477;28;20271;-76
2022/09/27 05:49:14;;;;;;;;;;;;;;;;;;4971043;28;20496;-77
2022/09/27 05:51:40;;;;;;;;;;;;;;;;;;4955758;28;19914;-77
2022/09/27 05:54:05;;;;;;;;;;;;;;;;;;4972432;28;20016;-76
2022/09/27 05:56:31;;;;;;;;;;;;;;;;;;4972443;28;19918;-76
2022/09/27 05:59:19;;;;;;;;;;;;;;;;;;4972548;28;20433;-77
2022/09/27 06:02:04;;;;;;;;;;;;;;;;;;4973903;28;19914;-76
2022/09/27 06:04:54;;;;;;;;;;;;;;;;;;4973280;28;19918;-76
2022/09/27 06:07:42;;;;;;;;;;;;;;;;;;4968394;28;20294;-76
2022/09/27 06:10:13;;;;;;;;;;;;;;;;;;4981109;28;19950;-76
2022/09/27 06:12:40;;;;;;;;;;;;;;;;;;4972090;28;20385;-76
2022/09/27 06:15:16;;;;;;;;;;;;;;;;;;4973682;28;19921;-76
2022/09/27 06:17:42;;;;;;;;;;;;;;;;;;4972030;28;19914;-77
2022/09/27 06:20:13;;;;;;;;;;;;;;;;;;4961589;28;19954;-77
2022/09/27 06:22:40;;;;;;;;;;;;;;;;;;4968315;28;19961;-76
2022/09/27 06:25:05;;;;;;;;;;;;;;;;;;4968598;28;20017;-76
2022/09/27 06:27:34;;;;;;;;;;;;;;;;;;4976278;28;20021;-77
2022/09/27 06:30:05;;;;;;;;;;;;;;;;;;4972392;28;19936;-76
2022/09/27 06:32:43;;;;;;;;;;;;;;;;;;4972135;28;19920;-76
2022/09/27 06:35:16;;;;;;;;;;;;;;;;;;4972039;28;19921;-76
2022/09/27 06:37:41;;;;;;;;;;;;;;;;;;4972429;28;20381;-76
2022/09/27 06:40:08;;;;;;;;;;;;;;;;;;4971903;28;20004;-76
2022/09/27 06:42:51;;;;;;;;;;;;;;;;;;4966827;28;19914;-77
2022/09/27 06:45:46;;;;;;;;;;;;;;;;;;4976919;28;20389;-76
2022/09/27 06:48:43;;;;;;;;;;;;;;;;;;4972144;28;19922;-76
2022/09/27 06:51:16;;;;;;;;;;;;;;;;;;4953997;28;20335;-76
2022/09/27 06:53:42;;;;;;;;;;;;;;;;;;4976369;28;19918;-76
2022/09/27 06:56:07;;;;;;;;;;;;;;;;;;4971645;28;20412;-76
2022/09/27 07:01:43;;;;;;;;;;;;;;;;;;4962687;28;19937;-76
2022/09/27 07:04:31;;;;;;;;;;;;;;;;;;4966095;28;20195;-76
2022/09/27 07:07:24;;;;;;;;;;;;;;;;;;4977948;28;20404;-76
2022/09/27 07:09:49;;;;;;;;;;;;;;;;;;4977042;28;19993;-76
2022/09/27 07:12:15;;;;;;;;;;;;;;;;;;4976323;28;20013;-76
2022/09/27 07:14:41;;;;;;;;;;;;;;;;;;4976035;28;19983;-76
2022/09/27 07:17:12;;;;;;;;;;;;;;;;;;4975509;28;19918;-76
2022/09/27 07:19:41;;;;;;;;;;;;;;;;;;4972960;28;19945;-76
2022/09/27 07:22:07;;;;;;;;;;;;;;;;;;4975366;28;19914;-76
2022/09/27 07:24:33;;;;;;;;;;;;;;;;;;4975642;28;20396;-77
2022/09/27 07:26:58;;;;;;;;;;;;;;;;;;4975446;28;20365;-77
2022/09/27 07:29:25;;;;;;;;;;;;;;;;;;4977183;28;19937;-76
2022/09/27 07:31:52;;;;;;;;;;;;;;;;;;4975534;28;19921;-77
2022/09/27 07:34:17;;;;;;;;;;;;;;;;;;4971844;28;19914;-75
2022/09/27 07:36:43;;;;;;;;;;;;;;;;;;4963815;28;20001;-76
2022/09/27 07:39:08;;;;;;;;;;;;;;;;;;4984940;28;19952;-76
2022/09/27 07:41:34;;;;;;;;;;;;;;;;;;4975370;28;20385;-75
2022/09/27 07:43:59;;;;;;;;;;;;;;;;;;4975215;28;19914;-76
2022/09/27 07:46:25;;;;;;;;;;;;;;;;;;4975359;28;20278;-77
2022/09/27 07:49:05;;;;;;;;;;;;;;;;;;4975437;28;20033;-77
2022/09/27 07:51:49;;;;;;;;;;;;;;;;;;4973281;28;20279;-76
2022/09/27 07:54:37;;;;;;;;;;;;;;;;;;4980800;28;19914;-76
2022/09/27 07:57:22;;;;;;;;;;;;;;;;;;4975945;28;19940;-77
2022/09/27 07:59:50;;;;;;;;;;;;;;;;;;4960594;28;19925;-76
2022/09/27 08:02:18;;;;;;;;;;;;;;;;;;4964663;28;19954;-77
2022/09/27 08:04:48;;;;;;;;;;;;;;;;;;4988167;28;19953;-78
2022/09/27 08:07:14;;;;;;;;;;;;;;;;;;4973715;28;19977;-77
2022/09/27 08:09:40;;;;;;;;;;;;;;;;;;4976572;28;19918;-77
2022/09/27 08:12:06;;;;;;;;;;;;;;;;;;4973252;28;20289;-76
2022/09/27 08:14:31;;;;;;;;;;;;;;;;;;4966391;28;19922;-77
2022/09/27 08:16:57;;;;;;;;;;;;;;;;;;4991212;28;19914;-76
2022/09/27 08:19:26;;;;;;;;;;;;;;;;;;4976076;28;19914;-77
2022/09/27 08:22:12;;;;;;;;;;;;;;;;;;4976470;28;19914;-76
2022/09/27 08:24:47;;;;;;;;;;;;;;;;;;4975322;28;19937;-76
2022/09/27 08:27:21;;;;;;;;;;;;;;;;;;4976156;28;19924;-76
2022/09/27 08:29:49;;;;;;;;;;;;;;;;;;4979102;28;20019;-76
2022/09/27 08:32:15;;;;;;;;;;;;;;;;;;4977877;28;20373;-77
2022/09/27 08:34:40;;;;;;;;;;;;;;;;;;4978321;28;20001;-75
2022/09/27 08:37:06;;;;;;;;;;;;;;;;;;4976889;28;20397;-76
2022/09/27 08:39:31;;;;;;;;;;;;;;;;;;4973173;28;20494;-74
2022/09/27 08:41:57;;;;;;;;;;;;;;;;;;4965845;28;19921;-76
2022/09/27 08:44:23;;;;;;;;;;;;;;;;;;4975463;28;20004;-77
2022/09/27 08:46:58;;;;;;;;;;;;;;;;;;4962312;28;19918;-77
2022/09/27 08:49:23;;;;;;;;;;;;;;;;;;4976877;28;20212;-76
2022/09/27 08:51:49;;;;;;;;;;;;;;;;;;4976952;28;20338;-77
2022/09/27 08:54:14;;;;;;;;;;;;;;;;;;4974565;28;20297;-77
2022/09/27 08:56:40;;;;;;;;;;;;;;;;;;4973934;28;19949;-76
2022/09/27 08:59:05;;;;;;;;;;;;;;;;;;4974598;28;20358;-78
2022/09/27 09:01:32;;;;;;;;;;;;;;;;;;4940994;29;19921;-75
2022/09/27 09:04:04;;;;;;;;;;;;;;;;;;4940169;29;19966;-75
2022/09/27 09:06:30;;;;;;;;;;;;;;;;;;4979988;28;20203;-76
2022/09/27 09:08:55;;;;;;;;;;;;;;;;;;4968933;28;20390;-78
2022/09/27 09:14:06;;;;;;;;;;;;;;;;;;4973640;28;20302;-78
2022/09/27 09:16:32;;;;;;;;;;;;;;;;;;4988909;28;19921;-77
2022/09/27 09:18:57;;;;;;;;;;;;;;;;;;4974550;28;20396;-77
2022/09/27 09:22:01;;;;;;;;;;;;;;;;;;4975522;28;20377;-78
2022/09/27 09:24:26;;;;;;;;;;;;;;;;;;4974885;28;19968;-76
2022/09/27 09:26:52;;;;;;;;;;;;;;;;;;4973837;28;20388;-77
2022/09/27 09:29:18;;;;;;;;;;;;;;;;;;4957839;28;20290;-76
2022/09/27 09:31:43;;;;;;;;;;;;;;;;;;4954751;29;20255;-76
2022/09/27 09:34:09;;;;;;;;;;;;;;;;;;4949676;28;19914;-77
2022/09/27 09:36:34;;;;;;;;;;;;;;;;;;4957814;28;20385;-77
2022/09/27 09:39:01;;;;;;;;;;;;;;;;;;4957018;28;19941;-77
2022/09/27 09:41:27;;;;;;;;;;;;;;;;;;4968231;28;20381;-79
2022/09/27 09:43:52;;;;;;;;;;;;;;;;;;4951421;28;19910;-78
2022/09/27 09:46:18;;;;;;;;;;;;;;;;;;4989178;28;20395;-78
2022/09/27 09:48:43;;;;;;;;;;;;;;;;;;4958074;28;20428;-77
2022/09/27 09:51:10;;;;;;;;;;;;;;;;;;4973013;28;20421;-76
2022/09/27 09:53:36;;;;;;;;;;;;;;;;;;4973411;28;19914;-78
2022/09/27 09:56:01;;;;;;;;;;;;;;;;;;4969346;28;19941;-77
2022/09/27 09:58:27;;;;;;;;;;;;;;;;;;4967570;28;20361;-76
2022/09/27 10:00:59;;;;;;;;;;;;;;;;;;4965939;28;19914;-76
2022/09/27 10:03:25;;;;;;;;;;;;;;;;;;4972189;28;19937;-76
2022/09/27 10:05:50;;;;;;;;;;;;;;;;;;4953059;28;20382;-76
2022/09/27 10:08:16;;;;;;;;;;;;;;;;;;4971939;28;20012;-86
2022/09/27 10:10:41;;;;;;;;;;;;;;;;;;4989189;28;20395;-76
2022/09/27 10:13:25;;;;;;;;;;;;;;;;;;4975013;28;19921;-76
2022/09/27 10:15:57;;;;;;;;;;;;;;;;;;4966292;28;19986;-76
2022/09/27 10:18:22;;;;;;;;;;;;;;;;;;4996376;28;19917;-76
2022/09/27 10:20:48;;;;;;;;;;;;;;;;;;4957905;28;19922;-77
2022/09/27 10:23:14;;;;;;;;;;;;;;;;;;4972260;28;20377;-76
2022/09/27 10:25:57;;;;;;;;;;;;;;;;;;4970816;28;20020;-77
2022/09/27 10:28:49;;;;;;;;;;;;;;;;;;4975797;28;19977;-78
2022/09/27 10:31:17;;;;;;;;;;;;;;;;;;4972539;28;19930;-78
2022/09/27 10:34:05;;;;;;;;;;;;;;;;;;4978371;28;20413;-76
2022/09/27 10:36:37;;;;;;;;;;;;;;;;;;4971580;28;19915;-76
2022/09/27 10:39:03;;;;;;;;;;;;;;;;;;4988222;28;19921;-78
2022/09/27 10:41:42;;;;;;;;;;;;;;;;;;4972043;28;19965;-78
2022/09/27 10:44:28;;;;;;;;;;;;;;;;;;4972752;28;19960;-78
2022/09/27 10:47:10;;;;;;;;;;;;;;;;;;4956167;28;20408;-77
2022/09/27 10:49:52;;;;;;;;;;;;;;;;;;4972363;28;19969;-77
2022/09/27 10:52:41;;;;;;;;;;;;;;;;;;4972297;28;19980;-77
2022/09/27 10:55:07;;;;;;;;;;;;;;;;;;4979946;28;19961;-77
2022/09/27 10:57:33;;;;;;;;;;;;;;;;;;4972488;28;19916;-77
2022/09/27 10:59:59;;;;;;;;;;;;;;;;;;4970219;28;20009;-77
2022/09/27 11:02:24;;;;;;;;;;;;;;;;;;4984702;28;19953;-77
2022/09/27 11:04:58;;;;;;;;;;;;;;;;;;4988147;28;19925;-76
2022/09/27 11:07:23;;;;;;;;;;;;;;;;;;4965368;28;20340;-77
2022/09/27 11:10:02;;;;;;;;;;;;;;;;;;4972749;28;19918;-76
2022/09/27 11:12:29;;;;;;;;;;;;;;;;;;4972210;28;19921;-75
2022/09/27 11:14:54;;;;;;;;;;;;;;;;;;4973588;28;20012;-77
2022/09/27 11:17:20;;;;;;;;;;;;;;;;;;4956227;28;19921;-76
2022/09/27 11:19:54;;;;;;;;;;;;;;;;;;4966067;28;19921;-76
2022/09/27 11:22:19;;;;;;;;;;;;;;;;;;4968991;28;19919;-76
2022/09/27 11:24:47;;;;;;;;;;;;;;;;;;4968943;28;19914;-75
2022/09/27 11:27:13;;;;;;;;;;;;;;;;;;4971328;28;20444;-77
2022/09/27 11:29:39;;;;;;;;;;;;;;;;;;4971319;28;20008;-76
2022/09/27 11:32:19;;;;;;;;;;;;;;;;;;4972727;28;19930;-75
2022/09/27 11:34:45;;;;;;;;;;;;;;;;;;4970964;28;19921;-77
2022/09/27 11:37:10;;;;;;;;;;;;;;;;;;4972482;28;19917;-77
2022/09/27 11:39:36;;;;;;;;;;;;;;;;;;4970382;28;20373;-76
2022/09/27 11:42:04;;;;;;;;;;;;;;;;;;4996171;28;20405;-76
2022/09/27 11:44:35;;;;;;;;;;;;;;;;;;4963026;28;19921;-75
2022/09/27 11:47:00;;;;;;;;;;;;;;;;;;4969977;28;20301;-76
2022/09/27 11:49:26;;;;;;;;;;;;;;;;;;4958379;28;19914;-77
2022/09/27 11:51:54;;;;;;;;;;;;;;;;;;4956126;28;19914;-76
2022/09/27 11:54:20;;;;;;;;;;;;;;;;;;4958701;28;19925;-76
2022/09/27 11:56:45;;;;;;;;;;;;;;;;;;4985771;28;19914;-76
2022/09/27 11:59:11;;;;;;;;;;;;;;;;;;4975566;28;20412;-76
2022/09/27 12:01:36;;;;;;;;;;;;;;;;;;4980807;28;19920;-76
2022/09/27 12:04:02;;;;;;;;;;;;;;;;;;4984006;28;20390;-76
2022/09/27 12:06:27;;;;;;;;;;;;;;;;;;4973021;28;19919;-75
2022/09/27 12:08:52;;;;;;;;;;;;;;;;;;4966333;28;19914;-75
2022/09/27 12:11:18;;;;;;;;;;;;;;;;;;4974474;28;19910;-75
2022/09/27 12:13:43;;;;;;;;;;;;;;;;;;4991199;28;20378;-74
2022/09/27 12:16:09;;;;;;;;;;;;;;;;;;4975119;28;19914;-73
2022/09/27 12:18:39;;;;;;;;;;;;;;;;;;4974360;28;19914;-75
2022/09/27 12:21:15;;;;;;;;;;;;;;;;;;4974645;28;19937;-77
2022/09/27 12:23:41;;;;;;;;;;;;;;;;;;4974457;28;20389;-76
2022/09/27 12:26:15;;;;;;;;;;;;;;;;;;4978026;28;20012;-89
2022/09/27 12:28:40;;;;;;;;;;;;;;;;;;4956586;28;20359;-79
2022/09/27 12:31:07;;;;;;;;;;;;;;;;;;4974905;28;19914;-82
2022/09/27 12:33:32;;;;;;;;;;;;;;;;;;4975339;28;20400;-77
2022/09/27 12:35:58;;;;;;;;;;;;;;;;;;4974072;28;19915;-76
2022/09/27 12:38:23;;;;;;;;;;;;;;;;;;4973759;28;19914;-77
2022/09/27 12:40:49;;;;;;;;;;;;;;;;;;4975003;28;19940;-77
2022/09/27 12:43:17;;;;;;;;;;;;;;;;;;4958852;28;19922;-77
2022/09/27 12:46:01;;;;;;;;;;;;;;;;;;4975703;28;20488;-77
2022/09/27 12:48:26;;;;;;;;;;;;;;;;;;4958660;28;19961;-76
2022/09/27 12:50:52;;;;;;;;;;;;;;;;;;4972438;28;19938;-75
2022/09/27 12:53:21;;;;;;;;;;;;;;;;;;4974080;28;20285;-75
2022/09/27 12:55:47;;;;;;;;;;;;;;;;;;4965568;28;20064;-76
2022/09/27 12:58:13;;;;;;;;;;;;;;;;;;4966389;28;20597;-78
2022/09/27 13:00:38;;;;;;;;;;;;;;;;;;4973486;28;20400;-75
2022/09/27 13:03:04;;;;;;;;;;;;;;;;;;4974400;28;19965;-76
2022/09/27 13:05:30;;;;;;;;;;;;;;;;;;4973281;28;20057;-76
2022/09/27 13:07:58;;;;;;;;;;;;;;;;;;4973492;28;19920;-74
2022/09/27 13:10:25;;;;;;;;;;;;;;;;;;4974659;28;20300;-75
2022/09/27 13:12:52;;;;;;;;;;;;;;;;;;4973301;28;19918;-76
2022/09/27 13:15:17;;;;;;;;;;;;;;;;;;4973734;28;19918;-76
2022/09/27 13:17:43;;;;;;;;;;;;;;;;;;4973378;28;19914;-76
2022/09/27 13:20:30;;;;;;;;;;;;;;;;;;4974592;28;19918;-76
2022/09/27 13:22:56;;;;;;;;;;;;;;;;;;4973291;28;20278;-75
2022/09/27 13:25:27;;;;;;;;;;;;;;;;;;4973378;28;19914;-77
2022/09/27 13:28:03;;;;;;;;;;;;;;;;;;4973069;28;19914;-76
2022/09/27 13:30:32;;;;;;;;;;;;;;;;;;4973426;28;19915;-77
2022/09/27 13:32:58;;;;;;;;;;;;;;;;;;4972912;28;19921;-77
2022/09/27 13:35:34;;;;;;;;;;;;;;;;;;4986249;28;20381;-75
2022/09/27 13:38:05;;;;;;;;;;;;;;;;;;4964996;28;19914;-76
2022/09/27 13:40:35;;;;;;;;;;;;;;;;;;4973204;28;19918;-77
2022/09/27 13:43:06;;;;;;;;;;;;;;;;;;4974051;28;20005;-76
2022/09/27 13:45:32;;;;;;;;;;;;;;;;;;4973048;28;20017;-76
2022/09/27 13:47:57;;;;;;;;;;;;;;;;;;4988624;22;19926;-71
2022/09/27 13:50:29;;;;;;;;;;;;;;;;;;4956821;28;19915;-72
2022/09/27 13:53:05;;;;;;;;;;;;;;;;;;4957074;28;19958;-72
2022/09/27 13:55:31;;;;;;;;;;;;;;;;;;4956011;28;19921;-71
2022/09/27 13:57:57;;;;;;;;;;;;;;;;;;4972124;28;19914;-72
2022/09/27 14:00:25;;;;;;;;;;;;;;;;;;4972087;28;19945;-71
2022/09/27 14:02:54;;;;;;;;;;;;;;;;;;4971872;28;20274;-72
2022/09/27 14:05:19;;;;;;;;;;;;;;;;;;4955947;28;19929;-72
2022/09/27 14:07:45;;;;;;;;;;;;;;;;;;4972264;28;20085;-71
2022/09/27 14:10:14;;;;;;;;;;;;;;;;;;4973371;28;19918;-73
2022/09/27 14:12:40;;;;;;;;;;;;;;;;;;4971711;28;20382;-72
2022/09/27 14:15:09;;;;;;;;;;;;;;;;;;4956388;28;19914;-73
2022/09/27 14:17:35;;;;;;;;;;;;;;;;;;4956264;28;19976;-70
2022/09/27 14:20:02;;;;;;;;;;;;;;;;;;4955975;28;19965;-72
2022/09/27 14:22:28;;;;;;;;;;;;;;;;;;4956385;28;19925;-72
2022/09/27 14:25:02;;;;;;;;;;;;;;;;;;4972240;28;19941;-71
2022/09/27 14:27:34;;;;;;;;;;;;;;;;;;4956174;28;19921;-73
2022/09/27 14:30:26;;;;;;;;;;;;;;;;;;4971941;28;19914;-71
2022/09/27 14:33:07;;;;;;;;;;;;;;;;;;4971933;28;19918;-71
2022/09/27 14:38:31;;;;;;;;;;;;;;;;;;4971629;28;19914;-72
2022/09/27 14:40:58;;;;;;;;;;;;;;;;;;4955646;28;20002;-72
2022/09/27 14:43:24;;;;;;;;;;;;;;;;;;4956790;28;20432;-73
2022/09/27 14:45:50;;;;;;;;;;;;;;;;;;4972822;28;19918;-72
2022/09/27 14:48:15;;;;;;;;;;;;;;;;;;4972332;28;19968;-72
2022/09/27 14:50:41;;;;;;;;;;;;;;;;;;4974029;28;20235;-73
2022/09/27 14:53:06;;;;;;;;;;;;;;;;;;4974159;28;19968;-73
2022/09/27 14:55:33;;;;;;;;;;;;;;;;;;4973918;28;19937;-74
2022/09/27 14:57:59;;;;;;;;;;;;;;;;;;4957478;28;19932;-72
2022/09/27 15:00:25;;;;;;;;;;;;;;;;;;4973122;28;20393;-71
2022/09/27 15:02:54;;;;;;;;;;;;;;;;;;4972770;28;19921;-72
2022/09/27 15:05:19;;;;;;;;;;;;;;;;;;4972943;28;20395;-73
2022/09/27 15:07:44;;;;;;;;;;;;;;;;;;4955897;28;20005;-72
2022/09/27 15:10:10;;;;;;;;;;;;;;;;;;4939723;28;19915;-74
2022/09/27 15:12:35;;;;;;;;;;;;;;;;;;4971748;28;19914;-73
2022/09/27 15:15:01;;;;;;;;;;;;;;;;;;4971486;28;19918;-73
2022/09/27 15:17:27;;;;;;;;;;;;;;;;;;4971400;28;20033;-72
2022/09/27 15:19:53;;;;;;;;;;;;;;;;;;4971796;28;19921;-73
2022/09/27 15:22:18;;;;;;;;;;;;;;;;;;4955560;28;20375;-72
2022/09/27 15:24:44;;;;;;;;;;;;;;;;;;4959337;28;19918;-71
2022/09/27 15:27:10;;;;;;;;;;;;;;;;;;4975722;28;19961;-72
2022/09/27 15:29:35;;;;;;;;;;;;;;;;;;4945102;28;19921;-70
2022/09/27 15:32:01;;;;;;;;;;;;;;;;;;4960917;28;19915;-71
2022/09/27 15:34:28;;;;;;;;;;;;;;;;;;4960935;28;19914;-72
2022/09/27 15:36:54;;;;;;;;;;;;;;;;;;4978684;28;19925;-72
2022/09/27 15:39:19;;;;;;;;;;;;;;;;;;4976313;28;19914;-72
2022/09/27 15:41:45;;;;;;;;;;;;;;;;;;4959178;28;19910;-73
2022/09/27 15:44:10;;;;;;;;;;;;;;;;;;4975280;28;19918;-71
2022/09/27 15:46:36;;;;;;;;;;;;;;;;;;4958955;28;19918;-73
2022/09/27 15:49:02;;;;;;;;;;;;;;;;;;4976414;28;19926;-72
2022/09/27 15:51:27;;;;;;;;;;;;;;;;;;4976524;28;19914;-73
2022/09/27 15:53:52;;;;;;;;;;;;;;;;;;4976391;28;19922;-73
2022/09/27 15:56:18;;;;;;;;;;;;;;;;;;4975505;28;20362;-71
2022/09/27 15:58:43;;;;;;;;;;;;;;;;;;4974715;28;19918;-71
2022/09/27 16:01:09;;;;;;;;;;;;;;;;;;4976423;28;19918;-72
2022/09/27 16:03:35;;;;;;;;;;;;;;;;;;4976124;28;20270;-73
2022/09/27 16:06:01;;;;;;;;;;;;;;;;;;4943116;28;19953;-73
2022/09/27 16:08:26;;;;;;;;;;;;;;;;;;4958916;28;19921;-72
2022/09/27 16:10:52;;;;;;;;;;;;;;;;;;4942635;28;20289;-72
2022/09/27 16:13:17;;;;;;;;;;;;;;;;;;4958457;28;19914;-72
2022/09/27 16:15:43;;;;;;;;;;;;;;;;;;4974605;28;20413;-71
2022/09/27 16:18:08;;;;;;;;;;;;;;;;;;4975675;28;19917;-72
2022/09/27 16:20:34;;;;;;;;;;;;;;;;;;4958294;28;19918;-72
2022/09/27 16:22:59;;;;;;;;;;;;;;;;;;4974062;28;19918;-72
2022/09/27 16:25:25;;;;;;;;;;;;;;;;;;4975266;28;19925;-71
2022/09/27 16:27:51;;;;;;;;;;;;;;;;;;4975575;28;19986;-71
2022/09/27 16:30:16;;;;;;;;;;;;;;;;;;4958479;28;19910;-72
2022/09/27 16:32:42;;;;;;;;;;;;;;;;;;4975247;28;19921;-73
2022/09/27 16:35:07;;;;;;;;;;;;;;;;;;4974966;28;20457;-72
2022/09/27 16:37:33;;;;;;;;;;;;;;;;;;4958567;28;19914;-70
2022/09/27 16:39:58;;;;;;;;;;;;;;;;;;4957966;28;20322;-71
2022/09/27 16:42:24;;;;;;;;;;;;;;;;;;4958080;28;20349;-71
2022/09/27 16:44:49;;;;;;;;;;;;;;;;;;4975265;28;19914;-72
2022/09/27 16:47:15;;;;;;;;;;;;;;;;;;4957741;28;20305;-72
2022/09/27 16:52:24;;;;;;;;;;;;;;;;;;4974900;28;20108;-72
2022/09/27 16:54:50;;;;;;;;;;;;;;;;;;4973670;28;20450;-71
2022/09/27 16:57:15;;;;;;;;;;;;;;;;;;4957809;28;19914;-73
2022/09/27 16:59:41;;;;;;;;;;;;;;;;;;4973672;28;19918;-71
2022/09/27 17:02:06;;;;;;;;;;;;;;;;;;4973665;28;20009;-71
2022/09/27 17:04:32;;;;;;;;;;;;;;;;;;4973543;28;20400;-73
2022/09/27 17:06:57;;;;;;;;;;;;;;;;;;4973368;28;19925;-73
2022/09/27 17:09:23;;;;;;;;;;;;;;;;;;4973435;28;19918;-73